Time;durP1;ratioP1;P1;durP2;ratioP2;P2;SDS_P1;SDS_P2;PMS_P1;PMS_P2;Temp;Humidity;BMP_temperature;BMP_pressure;BME280_temperature;BME280_humidity;BME280_pressure;Samples;Min_cycle;Max_cycle;Signal;HPM_P1;HPM_P2
2021/04/25 00:01:54;;;;;;;4.65;2.20;;;8.10;99.90;;;;;;5074350;28;20182;-86
2021/04/25 00:04:19;;;;;;;5.65;2.40;;;8.10;99.90;;;;;;5057935;28;20177;-87
2021/04/25 00:06:45;;;;;;;4.55;3.20;;;8.00;99.90;;;;;;5074423;28;20202;-86
2021/04/25 00:09:13;;;;;;;2.47;2.28;;;7.90;99.90;;;;;;5075833;28;20170;-88
2021/04/25 00:11:39;;;;;;;6.15;2.40;;;7.90;99.90;;;;;;5074852;28;20232;-87
2021/04/25 00:14:05;;;;;;;7.95;2.80;;;7.90;99.90;;;;;;5058036;28;20179;-87
2021/04/25 00:16:32;;;;;;;8.23;2.25;;;7.90;99.90;;;;;;5075543;28;20221;-87
2021/04/25 00:19:00;;;;;;;4.35;2.60;;;7.80;99.90;;;;;;5074410;28;20179;-87
2021/04/25 00:21:27;;;;;;;4.90;2.58;;;7.80;99.90;;;;;;5075725;28;20719;-86
2021/04/25 00:23:53;;;;;;;6.10;2.28;;;7.70;99.90;;;;;;5074663;28;20174;-87
2021/04/25 00:26:19;;;;;;;8.52;2.70;;;7.70;99.90;;;;;;5074246;28;20167;-87
2021/04/25 00:28:45;;;;;;;4.30;2.30;;;7.60;99.90;;;;;;5075413;28;20166;-86
2021/04/25 00:31:11;;;;;;;3.53;2.28;;;7.70;99.90;;;;;;5074935;28;20646;-87
2021/04/25 00:33:36;;;;;;;6.50;2.45;;;7.60;99.90;;;;;;5073915;28;20216;-87
2021/04/25 00:36:03;;;;;;;4.80;2.50;;;7.60;99.90;;;;;;5075288;28;20224;-86
2021/04/25 00:38:28;;;;;;;7.45;2.60;;;7.60;99.90;;;;;;5056968;28;20258;-87
2021/04/25 00:40:54;;;;;;;3.92;2.85;;;7.50;99.90;;;;;;5053848;28;20217;-86
2021/04/25 00:43:20;;;;;;;4.90;3.00;;;7.50;99.90;;;;;;5055285;28;20266;-86
2021/04/25 00:45:46;;;;;;;12.23;2.83;;;7.50;99.90;;;;;;5061320;28;20174;-85
2021/04/25 00:48:12;;;;;;;6.30;2.53;;;7.40;99.90;;;;;;5073489;28;20181;-87
2021/04/25 00:50:39;;;;;;;5.50;2.80;;;7.40;99.90;;;;;;5074851;28;20206;-84
2021/04/25 00:53:05;;;;;;;5.93;2.97;;;7.40;99.90;;;;;;5073402;28;20649;-83
2021/04/25 00:55:32;;;;;;;4.68;2.90;;;7.40;99.90;;;;;;5056640;28;20174;-84
2021/04/25 00:58:00;;;;;;;9.55;3.45;;;7.20;99.90;;;;;;5107289;28;20167;-84
2021/04/25 01:00:27;;;;;;;6.32;3.53;;;7.20;99.90;;;;;;5073018;28;20167;-84
2021/04/25 01:02:53;;;;;;;4.28;3.15;;;7.10;99.90;;;;;;5083182;28;20234;-83
2021/04/25 01:05:21;;;;;;;4.30;3.38;;;7.10;99.90;;;;;;5093753;28;20673;-84
2021/04/25 01:07:46;;;;;;;5.00;3.10;;;7.10;99.90;;;;;;5081805;28;20182;-84
2021/04/25 01:10:14;;;;;;;5.20;3.73;;;7.00;99.90;;;;;;5074002;28;20551;-83
2021/04/25 01:12:41;;;;;;;6.13;3.83;;;7.00;99.90;;;;;;5073854;28;20568;-83
2021/04/25 01:15:09;;;;;;;5.63;3.90;;;6.90;99.90;;;;;;5070625;28;20206;-83
2021/04/25 01:17:38;;;;;;;6.33;3.30;;;6.90;99.90;;;;;;5054355;28;20238;-84
2021/04/25 01:20:06;;;;;;;4.13;3.40;;;6.90;99.90;;;;;;5052842;28;20273;-83
2021/04/25 01:22:31;;;;;;;8.10;3.90;;;6.80;99.90;;;;;;5053081;28;20171;-83
2021/04/25 01:24:57;;;;;;;6.87;3.73;;;6.70;99.90;;;;;;5059939;28;20183;-83
2021/04/25 01:27:22;;;;;;;10.10;4.07;;;6.70;99.90;;;;;;5073597;28;20191;-83
2021/04/25 01:29:48;;;;;;;6.80;3.90;;;6.60;99.90;;;;;;5072932;28;20281;-84
2021/04/25 01:32:14;;;;;;;6.73;3.83;;;6.60;99.90;;;;;;5072597;28;20212;-84
2021/04/25 01:34:40;;;;;;;6.83;3.40;;;6.60;99.90;;;;;;5073843;28;20182;-83
2021/04/25 01:37:06;;;;;;;6.93;3.90;;;6.60;99.90;;;;;;5073248;28;20171;-83
2021/04/25 01:39:31;;;;;;;8.40;4.23;;;6.60;99.90;;;;;;5072655;28;20178;-84
2021/04/25 01:41:57;;;;;;;11.90;4.80;;;6.50;99.90;;;;;;5072655;28;20194;-83
2021/04/25 01:44:23;;;;;;;6.30;4.33;;;6.50;99.90;;;;;;5073067;28;20178;-84
2021/04/25 01:46:49;;;;;;;8.10;4.90;;;6.40;99.90;;;;;;5071124;28;20228;-84
2021/04/25 01:49:15;;;;;;;8.33;5.37;;;6.40;99.90;;;;;;5074007;28;20657;-84
2021/04/25 01:51:44;;;;;;;10.50;4.67;;;6.40;99.90;;;;;;5071543;28;20210;-83
2021/04/25 01:54:10;;;;;;;9.03;4.67;;;6.40;99.90;;;;;;5072197;28;20171;-84
2021/04/25 01:56:36;;;;;;;10.03;5.00;;;6.30;99.90;;;;;;5072524;28;20178;-84
2021/04/25 01:59:02;;;;;;;8.60;4.93;;;6.30;99.90;;;;;;5073681;28;20623;-83
2021/04/25 02:01:28;;;;;;;7.60;4.87;;;6.40;99.90;;;;;;5072532;28;20174;-83
2021/04/25 02:03:53;;;;;;;12.33;5.63;;;6.30;99.90;;;;;;5073860;28;20193;-84
2021/04/25 02:06:19;;;;;;;9.40;5.73;;;6.30;99.90;;;;;;5072539;28;20261;-84
2021/04/25 02:08:45;;;;;;;9.77;5.50;;;6.20;99.90;;;;;;5070598;28;20198;-84
2021/04/25 02:11:11;;;;;;;9.40;5.77;;;6.20;99.90;;;;;;5052397;28;20199;-84
2021/04/25 02:13:37;;;;;;;8.13;5.40;;;6.20;99.90;;;;;;5052705;28;20172;-84
2021/04/25 02:16:04;;;;;;;7.80;5.70;;;6.20;99.90;;;;;;5052404;28;20184;-84
2021/04/25 02:18:30;;;;;;;10.77;5.67;;;6.10;99.90;;;;;;5053490;28;20174;-82
2021/04/25 02:20:56;;;;;;;8.97;5.00;;;6.10;99.90;;;;;;5064637;28;20266;-84
2021/04/25 02:23:22;;;;;;;7.70;5.43;;;6.10;99.90;;;;;;5072371;28;20645;-84
2021/04/25 02:25:47;;;;;;;13.73;6.60;;;6.10;99.90;;;;;;5072258;28;20163;-84
2021/04/25 02:28:13;;;;;;;16.03;6.57;;;6.20;99.90;;;;;;5072462;28;20204;-84
2021/04/25 02:30:41;;;;;;;8.43;6.13;;;6.10;99.90;;;;;;5072473;28;20582;-83
2021/04/25 02:33:07;;;;;;;9.20;5.70;;;6.10;99.90;;;;;;5073446;28;20178;-83
2021/04/25 02:35:33;;;;;;;8.20;5.17;;;5.90;99.90;;;;;;5073497;28;20534;-83
2021/04/25 02:37:59;;;;;;;15.23;6.50;;;5.90;99.90;;;;;;5061565;28;20188;-84
2021/04/25 02:40:28;;;;;;;12.30;6.63;;;5.90;99.90;;;;;;5035253;28;20233;-84
2021/04/25 02:42:55;;;;;;;13.50;6.57;;;6.00;99.90;;;;;;5065154;28;20253;-83
2021/04/25 02:45:22;;;;;;;10.40;6.90;;;5.90;99.90;;;;;;5055227;28;20637;-83
2021/04/25 02:47:50;;;;;;;11.77;6.87;;;5.90;99.90;;;;;;5055409;28;20308;-84
2021/04/25 02:50:18;;;;;;;10.20;5.87;;;5.80;99.90;;;;;;5072985;28;20203;-84
2021/04/25 02:52:44;;;;;;;13.30;6.63;;;5.80;99.90;;;;;;5071952;28;20189;-84
2021/04/25 02:55:11;;;;;;;17.37;7.37;;;5.70;99.90;;;;;;5073123;28;20611;-83
2021/04/25 02:57:38;;;;;;;10.87;6.33;;;5.70;99.90;;;;;;5073230;28;20163;-84
2021/04/25 03:00:05;;;;;;;13.60;6.93;;;5.80;99.90;;;;;;5072028;28;20213;-83
2021/04/25 03:02:31;;;;;;;12.90;6.73;;;5.70;99.90;;;;;;5072123;28;20194;-83
2021/04/25 03:04:57;;;;;;;13.60;6.40;;;5.70;99.90;;;;;;5075486;28;20701;-83
2021/04/25 03:07:22;;;;;;;10.63;6.13;;;5.60;99.90;;;;;;5074635;28;20185;-84
2021/04/25 03:09:48;;;;;;;12.10;7.00;;;5.60;99.90;;;;;;5076742;28;20305;-84
2021/04/25 03:12:13;;;;;;;9.27;6.70;;;5.60;99.90;;;;;;5076149;28;20179;-84
2021/04/25 03:14:39;;;;;;;12.23;7.03;;;5.60;99.90;;;;;;5075691;28;20224;-84
2021/04/25 03:17:05;;;;;;;8.57;6.13;;;5.60;99.90;;;;;;5075398;28;20167;-83
2021/04/25 03:19:30;;;;;;;18.67;7.17;;;5.60;99.90;;;;;;5076103;28;20175;-83
2021/04/25 03:21:56;;;;;;;10.17;6.60;;;5.60;99.90;;;;;;5074863;28;20182;-83
2021/04/25 03:24:22;;;;;;;14.60;6.30;;;5.60;99.90;;;;;;5075596;28;20179;-84
2021/04/25 03:26:48;;;;;;;11.77;7.13;;;5.60;99.90;;;;;;5076275;28;20619;-84
2021/04/25 03:29:13;;;;;;;8.97;7.13;;;5.70;99.90;;;;;;5075349;28;20639;-84
2021/04/25 03:31:39;;;;;;;15.03;6.73;;;5.70;99.90;;;;;;5076039;28;20253;-85
2021/04/25 03:34:05;;;;;;;11.83;6.23;;;5.60;99.90;;;;;;5076074;28;20234;-84
2021/04/25 03:36:30;;;;;;;17.80;8.40;;;5.70;99.90;;;;;;5074040;28;20178;-84
2021/04/25 03:38:56;;;;;;;10.60;6.80;;;5.60;99.90;;;;;;5066850;28;20167;-84
2021/04/25 03:41:22;;;;;;;10.47;6.80;;;5.50;99.90;;;;;;5073797;28;20174;-83
2021/04/25 03:43:48;;;;;;;11.33;6.97;;;5.60;99.90;;;;;;5075341;28;20185;-84
2021/04/25 03:46:14;;;;;;;16.83;7.17;;;5.60;99.90;;;;;;5074886;28;20224;-85
2021/04/25 03:48:39;;;;;;;11.33;6.87;;;5.60;99.90;;;;;;5075954;28;20166;-84
2021/04/25 03:51:05;;;;;;;13.27;6.30;;;5.60;99.90;;;;;;5074502;28;20609;-84
2021/04/25 03:53:31;;;;;;;16.47;7.43;;;5.60;99.90;;;;;;5075186;28;20177;-84
2021/04/25 03:55:57;;;;;;;11.23;6.77;;;5.60;99.90;;;;;;5076188;28;20166;-84
2021/04/25 03:58:22;;;;;;;9.93;7.20;;;5.70;99.90;;;;;;5074641;28;20159;-84
2021/04/25 04:00:48;;;;;;;13.67;7.90;;;5.60;99.90;;;;;;5075033;28;20631;-85
2021/04/25 04:03:14;;;;;;;12.13;7.33;;;5.60;99.90;;;;;;5074399;28;20187;-84
2021/04/25 04:05:39;;;;;;;13.40;8.00;;;5.50;99.90;;;;;;5074492;28;20646;-84
2021/04/25 04:08:05;;;;;;;16.00;8.27;;;5.50;99.90;;;;;;5057067;28;20185;-84
2021/04/25 04:10:30;;;;;;;12.63;7.20;;;5.30;99.90;;;;;;5054655;28;20213;-84
2021/04/25 04:12:56;;;;;;;11.23;7.73;;;5.20;99.90;;;;;;5055611;28;20171;-84
2021/04/25 04:15:22;;;;;;;17.33;8.20;;;5.20;99.90;;;;;;5058008;28;20202;-83
2021/04/25 04:17:47;;;;;;;13.03;8.33;;;5.10;99.90;;;;;;5063320;28;20193;-84
2021/04/25 04:20:13;;;;;;;13.13;8.30;;;5.10;99.90;;;;;;5076191;28;20178;-84
2021/04/25 04:22:39;;;;;;;12.57;7.53;;;5.10;99.90;;;;;;5106474;28;20182;-84
2021/04/25 04:25:05;;;;;;;12.30;7.57;;;5.20;99.90;;;;;;5109919;28;20186;-84
2021/04/25 04:27:31;;;;;;;13.67;8.07;;;5.20;99.90;;;;;;5109541;28;20178;-84
2021/04/25 04:29:56;;;;;;;15.57;8.13;;;5.10;99.90;;;;;;5088079;28;20202;-83
2021/04/25 04:32:22;;;;;;;14.50;8.57;;;5.10;99.90;;;;;;5057710;28;20179;-83
2021/04/25 04:34:48;;;;;;;20.73;8.60;;;5.10;99.90;;;;;;5075421;28;20180;-84
2021/04/25 04:37:13;;;;;;;10.47;8.03;;;5.10;99.90;;;;;;5064041;28;20182;-83
2021/04/25 04:39:39;;;;;;;16.53;8.77;;;5.10;99.90;;;;;;5054013;28;20574;-84
2021/04/25 04:42:05;;;;;;;16.37;8.77;;;5.10;99.90;;;;;;5054117;28;20628;-84
2021/04/25 04:44:31;;;;;;;12.37;8.57;;;5.20;99.90;;;;;;5054945;28;20164;-85
2021/04/25 04:46:56;;;;;;;15.23;8.30;;;5.20;99.90;;;;;;5067955;28;20190;-84
2021/04/25 04:49:23;;;;;;;14.03;7.67;;;5.30;99.90;;;;;;5071231;28;20647;-84
2021/04/25 04:51:48;;;;;;;13.53;7.90;;;5.30;99.90;;;;;;5083649;28;20228;-84
2021/04/25 04:54:14;;;;;;;12.93;7.93;;;5.40;99.90;;;;;;5083366;28;20598;-83
2021/04/25 04:56:40;;;;;;;14.30;8.90;;;5.50;99.90;;;;;;5083239;28;20174;-84
2021/04/25 04:59:06;;;;;;;17.73;8.30;;;5.60;99.90;;;;;;5061580;28;20228;-84
2021/04/25 05:01:33;;;;;;;13.07;7.33;;;5.60;99.90;;;;;;5083404;28;20542;-84
2021/04/25 05:03:59;;;;;;;14.87;7.80;;;5.70;99.90;;;;;;5086100;28;20198;-83
2021/04/25 05:06:25;;;;;;;9.20;6.70;;;5.60;99.90;;;;;;5084572;28;20174;-84
2021/04/25 05:08:50;;;;;;;20.43;7.90;;;5.50;99.90;;;;;;5078924;28;20204;-84
2021/04/25 05:11:16;;;;;;;8.03;6.90;;;5.50;99.90;;;;;;5076562;28;20202;-83
2021/04/25 05:13:42;;;;;;;15.47;8.63;;;5.50;99.90;;;;;;5078176;28;20186;-84
2021/04/25 05:16:07;;;;;;;8.97;7.13;;;5.50;99.90;;;;;;5046694;28;20176;-84
2021/04/25 05:18:33;;;;;;;15.10;7.60;;;5.50;99.90;;;;;;5058562;28;20172;-83
2021/04/25 05:20:59;;;;;;;14.03;8.13;;;5.60;99.90;;;;;;5070067;28;20182;-82
2021/04/25 05:23:25;;;;;;;10.90;7.80;;;5.70;99.90;;;;;;5084517;28;20549;-83
2021/04/25 05:25:51;;;;;;;13.30;7.33;;;5.70;99.90;;;;;;5088223;28;20171;-82
2021/04/25 05:28:16;;;;;;;8.90;6.87;;;5.80;99.90;;;;;;5063430;28;20232;-84
2021/04/25 05:30:42;;;;;;;11.33;7.20;;;5.80;99.90;;;;;;5079172;28;20260;-84
2021/04/25 05:33:07;;;;;;;9.43;7.20;;;5.80;99.90;;;;;;5076975;28;20185;-84
2021/04/25 05:35:33;;;;;;;14.80;6.80;;;5.80;99.90;;;;;;5085378;28;20170;-85
2021/04/25 05:37:59;;;;;;;12.53;7.50;;;5.90;99.90;;;;;;5078671;28;20285;-85
2021/04/25 05:40:24;;;;;;;15.27;7.50;;;6.00;99.90;;;;;;5074083;28;20170;-85
2021/04/25 05:42:50;;;;;;;13.47;6.97;;;6.00;99.90;;;;;;5073027;28;20171;-85
2021/04/25 05:45:21;;;;;;;11.90;6.93;;;6.00;99.90;;;;;;5072928;28;20173;-85
2021/04/25 05:47:52;;;;;;;13.50;7.13;;;6.10;99.90;;;;;;5072693;28;20266;-85
2021/04/25 05:50:19;;;;;;;10.93;6.60;;;6.10;99.90;;;;;;5074249;28;20221;-85
2021/04/25 05:52:46;;;;;;;12.83;6.23;;;6.20;99.90;;;;;;5074043;28;20572;-83
2021/04/25 05:55:12;;;;;;;13.37;5.80;;;6.30;99.90;;;;;;5073895;28;20240;-82
2021/04/25 05:57:38;;;;;;;9.97;6.87;;;6.40;99.90;;;;;;5073466;28;20177;-82
2021/04/25 06:00:07;;;;;;;8.13;5.90;;;6.50;99.90;;;;;;5072594;28;20170;-83
2021/04/25 06:02:33;;;;;;;9.97;6.20;;;6.60;99.90;;;;;;5073637;28;20197;-82
2021/04/25 06:04:59;;;;;;;9.10;5.47;;;6.70;99.90;;;;;;5073662;28;20171;-84
2021/04/25 06:07:25;;;;;;;17.87;7.17;;;6.60;99.90;;;;;;5072644;28;20201;-84
2021/04/25 06:09:51;;;;;;;7.37;5.93;;;6.60;99.90;;;;;;5072934;28;20179;-81
2021/04/25 06:12:17;;;;;;;12.60;5.77;;;6.80;99.90;;;;;;5077298;28;20171;-82
2021/04/25 06:14:43;;;;;;;9.73;5.13;;;7.00;99.90;;;;;;5077589;28;20166;-82
2021/04/25 06:17:09;;;;;;;12.23;6.53;;;7.10;99.90;;;;;;5073102;28;20182;-82
2021/04/25 06:19:34;;;;;;;12.77;6.03;;;7.10;99.90;;;;;;5071870;28;20261;-81
2021/04/25 06:22:00;;;;;;;9.33;5.97;;;7.20;99.90;;;;;;5073279;28;20282;-82
2021/04/25 06:24:26;;;;;;;12.20;5.63;;;7.20;99.90;;;;;;5071847;28;20167;-82
2021/04/25 06:26:51;;;;;;;10.07;5.33;;;7.00;99.90;;;;;;5073288;28;20642;-82
2021/04/25 06:29:17;;;;;;;12.27;5.37;;;7.20;99.90;;;;;;5072165;28;20213;-89
2021/04/25 06:31:43;;;;;;;14.25;4.80;;;7.40;99.90;;;;;;5072482;28;20202;-83
2021/04/25 06:34:09;;;;;;;9.30;4.85;;;7.40;99.90;;;;;;5072885;28;20202;-82
2021/04/25 06:36:39;;;;;;;9.50;4.57;;;7.90;99.90;;;;;;5072488;28;20163;-83
2021/04/25 06:39:05;;;;;;;15.13;4.63;;;9.30;99.90;;;;;;5074386;28;20606;-84
2021/04/25 06:41:31;;;;;;;6.22;4.00;;;11.70;99.90;;;;;;5075742;28;20250;-84
2021/04/25 06:43:57;;;;;;;7.60;4.25;;;13.30;99.90;;;;;;5076887;28;20163;-84
2021/04/25 06:46:23;;;;;;;5.95;3.60;;;15.10;99.90;;;;;;5075466;28;20187;-84
2021/04/25 06:48:49;;;;;;;5.68;3.40;;;16.20;99.60;;;;;;5059053;28;20212;-84
2021/04/25 06:51:15;;;;;;;7.65;4.38;;;16.80;97.00;;;;;;5075837;28;20199;-86
2021/04/25 06:53:41;;;;;;;10.60;3.40;;;16.10;96.60;;;;;;5077114;28;20512;-86
2021/04/25 06:56:06;;;;;;;7.97;3.28;;;16.20;95.00;;;;;;5075991;28;20174;-86
2021/04/25 06:58:32;;;;;;;8.50;3.17;;;17.30;93.40;;;;;;5076591;28;20167;-85
2021/04/25 07:00:58;;;;;;;5.18;3.38;;;16.70;93.20;;;;;;5076155;28;20575;-85
2021/04/25 07:03:23;;;;;;;4.93;2.88;;;15.20;94.50;;;;;;5075325;28;20651;-85
2021/04/25 07:05:49;;;;;;;8.10;3.45;;;14.70;96.10;;;;;;5075017;28;20170;-83
2021/04/25 07:08:15;;;;;;;7.63;3.25;;;14.80;95.60;;;;;;5076065;28;20170;-83
2021/04/25 07:10:40;;;;;;;8.55;3.67;;;14.40;95.50;;;;;;5075289;28;20214;-84
2021/04/25 07:13:06;;;;;;;4.22;3.22;;;14.60;95.90;;;;;;5076350;28;20175;-85
2021/04/25 07:15:32;;;;;;;6.72;3.88;;;14.60;96.60;;;;;;5075667;28;20171;-86
2021/04/25 07:17:58;;;;;;;9.27;4.30;;;16.00;93.90;;;;;;5076693;28;20631;-87
2021/04/25 07:20:24;;;;;;;6.25;3.42;;;15.00;94.20;;;;;;5076671;28;20216;-90
2021/04/25 07:22:51;;;;;;;7.78;3.80;;;15.40;95.20;;;;;;5076241;28;20170;-89
2021/04/25 07:25:17;;;;;;;8.05;3.83;;;15.40;94.20;;;;;;5076201;28;20189;-89
2021/04/25 07:27:44;;;;;;;3.63;3.22;;;14.80;94.60;;;;;;5076722;28;20171;-89
2021/04/25 07:30:10;;;;;;;5.38;3.55;;;13.00;96.90;;;;;;5059436;28;20206;-89
2021/04/25 07:32:36;;;;;;;6.05;3.83;;;12.80;98.40;;;;;;5076525;28;20167;-90
2021/04/25 07:35:03;;;;;;;5.72;3.53;;;14.20;97.10;;;;;;5076786;28;20176;-84
2021/04/25 07:37:29;;;;;;;10.30;3.70;;;14.20;96.50;;;;;;5075714;28;20258;-88
2021/04/25 07:39:55;;;;;;;11.30;4.32;;;12.80;97.00;;;;;;5075739;28;20230;-86
2021/04/25 07:42:21;;;;;;;4.63;3.80;;;11.30;99.70;;;;;;5077221;28;20533;-90
2021/04/25 07:44:46;;;;;;;11.60;4.00;;;11.60;99.90;;;;;;5076122;28;20505;-85
2021/04/25 07:47:12;;;;;;;3.67;3.10;;;12.60;99.30;;;;;;5058363;28;20171;-86
2021/04/25 07:49:38;;;;;;;5.05;3.42;;;14.60;97.40;;;;;;5087066;28;20527;-87
2021/04/25 07:52:05;;;;;;;8.30;3.42;;;15.20;95.70;;;;;;5095563;28;20235;-89
2021/04/25 07:54:30;;;;;;;4.13;3.50;;;16.60;94.10;;;;;;5067810;28;20183;-87
2021/04/25 07:56:56;;;;;;;8.40;3.25;;;19.00;92.50;;;;;;5075156;28;20532;-89
2021/04/25 07:59:22;;;;;;;3.97;2.90;;;19.30;86.60;;;;;;5075929;28;20171;-88
2021/04/25 08:01:48;;;;;;;5.25;3.55;;;18.30;89.50;;;;;;5075777;28;20170;-91
2021/04/25 08:04:14;;;;;;;6.05;2.95;;;18.60;88.20;;;;;;5073591;28;20182;-88
2021/04/25 08:06:39;;;;;;;8.50;4.03;;;20.30;84.10;;;;;;5074183;28;20178;-90
2021/04/25 08:09:05;;;;;;;6.97;3.30;;;19.60;85.80;;;;;;5074072;28;20193;-88
2021/04/25 08:11:31;;;;;;;11.30;3.65;;;19.70;83.20;;;;;;5076191;28;20278;-89
2021/04/25 08:13:57;;;;;;;5.10;3.83;;;19.00;83.30;;;;;;5073301;28;20185;-89
2021/04/25 08:16:22;;;;;;;6.90;3.72;;;19.80;83.80;;;;;;5070693;28;20167;-90
2021/04/25 08:18:48;;;;;;;3.85;3.15;;;20.60;81.10;;;;;;5075731;28;20180;-89
2021/04/25 08:21:13;;;;;;;9.50;3.80;;;22.30;78.40;;;;;;5074521;28;20262;-88
2021/04/25 08:23:41;;;;;;;7.93;3.63;;;20.30;77.70;;;;;;5068717;28;20167;-90
2021/04/25 08:26:07;;;;;;;4.82;3.17;;;19.70;81.10;;;;;;5061612;28;20177;-91
2021/04/25 08:28:32;;;;;;;5.88;3.33;;;19.70;79.70;;;;;;5087760;28;20174;-89
2021/04/25 08:30:58;;;;;;;4.25;3.20;;;19.80;78.80;;;;;;5072803;28;20297;-87
2021/04/25 08:33:25;;;;;;;7.43;3.65;;;20.50;78.20;;;;;;5069849;28;20189;-84
2021/04/25 08:35:51;;;;;;;4.72;3.40;;;20.40;76.80;;;;;;5073484;28;20163;-82
2021/04/25 08:38:17;;;;;;;5.43;3.55;;;19.60;77.70;;;;;;5072988;28;20178;-82
2021/04/25 08:40:43;;;;;;;5.05;3.75;;;18.80;81.30;;;;;;5072544;28;20217;-82
2021/04/25 08:43:13;;;;;;;6.00;3.20;;;19.10;80.00;;;;;;5073935;28;20186;-84
2021/04/25 08:45:45;;;;;;;6.18;3.40;;;19.90;81.10;;;;;;5074284;28;20171;-84
2021/04/25 08:48:13;;;;;;;5.55;3.33;;;20.20;78.50;;;;;;5074823;28;20163;-88
2021/04/25 08:50:40;;;;;;;17.23;3.83;;;21.10;76.90;;;;;;5073059;28;20203;-86
2021/04/25 08:53:07;;;;;;;5.85;3.25;;;21.90;74.40;;;;;;5074287;28;20560;-87
2021/04/25 08:55:32;;;;;;;8.77;3.30;;;20.90;74.10;;;;;;5073043;28;20258;-86
2021/04/25 08:57:58;;;;;;;7.05;3.65;;;21.10;74.30;;;;;;5073924;28;20190;-87
2021/04/25 09:00:25;;;;;;;8.38;3.17;;;20.90;74.20;;;;;;5074148;28;20249;-85
2021/04/25 09:02:54;;;;;;;6.25;3.70;;;22.10;73.00;;;;;;5072436;28;20191;-87
2021/04/25 09:05:21;;;;;;;4.82;3.55;;;23.20;72.40;;;;;;5074003;28;20159;-87
2021/04/25 09:08:01;;;;;;;5.35;3.03;;;22.10;71.60;;;;;;5072818;28;20167;-88
2021/04/25 09:10:36;;;;;;;4.00;2.78;;;23.90;69.40;;;;;;5073143;28;20658;-86
2021/04/25 09:13:20;;;;;;;3.83;3.22;;;24.50;67.70;;;;;;5073137;28;20223;-85
2021/04/25 09:15:46;;;;;;;6.40;3.28;;;23.50;67.80;;;;;;5072530;28;20170;-85
2021/04/25 09:18:13;;;;;;;6.65;3.33;;;21.40;72.40;;;;;;5072216;28;20167;-85
2021/04/25 09:20:40;;;;;;;4.53;3.50;;;22.10;72.00;;;;;;5074125;28;20195;-85
2021/04/25 09:23:08;;;;;;;7.25;3.45;;;21.70;70.60;;;;;;5073930;28;20224;-86
2021/04/25 09:25:34;;;;;;;7.00;3.47;;;20.60;72.50;;;;;;5073003;28;20264;-86
2021/04/25 09:28:16;;;;;;;6.85;3.65;;;19.10;75.20;;;;;;5074132;28;20167;-86
2021/04/25 09:30:57;;;;;;;8.52;3.30;;;19.00;77.70;;;;;;5073335;28;20279;-87
2021/04/25 09:33:26;;;;;;;9.98;3.78;;;21.90;75.40;;;;;;5074154;28;20257;-87
2021/04/25 09:35:53;;;;;;;10.75;3.55;;;21.10;71.10;;;;;;5074301;28;20170;-85
2021/04/25 09:38:18;;;;;;;15.25;3.83;;;21.20;72.70;;;;;;5072686;28;20600;-85
2021/04/25 09:40:46;;;;;;;6.38;3.45;;;20.50;74.80;;;;;;5073871;28;20202;-86
2021/04/25 09:43:13;;;;;;;3.63;3.33;;;20.40;73.40;;;;;;5072719;28;20504;-85
2021/04/25 09:45:44;;;;;;;5.07;3.47;;;22.40;72.90;;;;;;5073805;28;20185;-87
2021/04/25 09:48:18;;;;;;;6.45;3.80;;;22.70;70.50;;;;;;5073820;28;20651;-88
2021/04/25 09:50:44;;;;;;;8.98;3.13;;;21.10;72.80;;;;;;5072835;28;20201;-85
2021/04/25 09:53:19;;;;;;;7.15;4.10;;;20.90;73.70;;;;;;5072866;28;20163;-88
2021/04/25 09:56:06;;;;;;;6.75;3.97;;;18.60;76.70;;;;;;5073482;28;20188;-90
2021/04/25 09:58:31;;;;;;;5.78;3.30;;;21.00;79.00;;;;;;5073549;28;20211;-89
2021/04/25 10:00:57;;;;;;;8.50;3.92;;;21.50;72.90;;;;;;5074207;28;20201;-88
2021/04/25 10:03:32;;;;;;;6.93;3.60;;;22.30;72.50;;;;;;5072215;28;20190;-89
2021/04/25 10:06:05;;;;;;;9.57;3.78;;;22.40;70.00;;;;;;5071919;28;20575;-88
2021/04/25 10:08:37;;;;;;;6.50;3.80;;;19.60;75.10;;;;;;5074189;28;20171;-89
2021/04/25 10:11:07;;;;;;;8.40;3.95;;;21.50;74.90;;;;;;5074009;28;20228;-91
2021/04/25 10:13:39;;;;;;;5.47;3.92;;;22.70;71.50;;;;;;5067293;28;20265;-87
2021/04/25 10:16:04;;;;;;;4.78;3.17;;;23.60;69.00;;;;;;5062876;28;20231;-86
2021/04/25 10:18:30;;;;;;;7.65;3.90;;;23.30;68.90;;;;;;5076962;28;20624;-88
2021/04/25 10:20:57;;;;;;;8.55;3.95;;;22.20;69.30;;;;;;5075406;28;20174;-87
2021/04/25 10:23:23;;;;;;;6.05;3.95;;;18.30;76.90;;;;;;5076195;28;20178;-89
2021/04/25 10:25:50;;;;;;;4.50;3.67;;;19.10;78.10;;;;;;5077761;28;20171;-93
2021/04/25 10:28:18;;;;;;;6.05;3.45;;;19.80;75.10;;;;;;5077066;28;20554;-88
2021/04/25 10:30:46;;;;;;;7.70;3.90;;;20.40;77.30;;;;;;5077309;28;20209;-89
2021/04/25 10:33:11;;;;;;;6.35;3.75;;;22.80;70.10;;;;;;5075382;28;20193;-82
2021/04/25 10:35:37;;;;;;;6.78;3.80;;;23.40;70.50;;;;;;5075076;28;20620;-83
2021/04/25 10:38:07;;;;;;;8.15;3.92;;;22.70;70.40;;;;;;5075459;28;20163;-83
2021/04/25 10:40:34;;;;;;;5.72;3.45;;;22.50;72.20;;;;;;5075441;28;20189;-83
2021/04/25 10:43:09;;;;;;;8.60;3.55;;;24.20;68.70;;;;;;5075690;28;20210;-83
2021/04/25 10:45:54;;;;;;;4.85;3.95;;;22.80;69.70;;;;;;5076114;28;20181;-83
2021/04/25 10:48:23;;;;;;;6.97;3.75;;;22.70;69.60;;;;;;5074611;28;20163;-80
2021/04/25 10:50:51;;;;;;;7.60;3.25;;;23.60;68.30;;;;;;5075841;28;20202;-83
2021/04/25 10:53:19;;;;;;;7.00;4.15;;;24.10;68.80;;;;;;5075530;28;20198;-84
2021/04/25 10:56:13;;;;;;;9.93;3.50;;;23.40;68.00;;;;;;5075232;28;20197;-82
2021/04/25 10:58:47;;;;;;;5.45;3.75;;;21.30;70.80;;;;;;5068159;28;20197;-84
2021/04/25 11:01:39;;;;;;;6.35;3.90;;;20.30;72.90;;;;;;5076658;28;20179;-84
2021/04/25 11:04:05;;;;;;;4.43;3.38;;;24.00;71.00;;;;;;5074674;28;20196;-85
2021/04/25 11:06:31;;;;;;;11.15;4.18;;;21.80;68.70;;;;;;5076154;28;20209;-82
2021/04/25 11:08:57;;;;;;;8.77;3.63;;;20.80;74.30;;;;;;5076684;28;20178;-83
2021/04/25 11:11:33;;;;;;;6.25;3.78;;;22.90;73.90;;;;;;5070829;28;20298;-80
2021/04/25 11:13:59;;;;;;;10.60;3.65;;;24.50;68.50;;;;;;5085124;28;20260;-79
2021/04/25 11:16:27;;;;;;;5.70;3.20;;;24.90;67.50;;;;;;5094672;28;20213;-80
2021/04/25 11:19:10;;;;;;;6.22;3.40;;;23.90;65.30;;;;;;5085285;28;20516;-80
2021/04/25 11:21:40;;;;;;;5.57;3.97;;;23.70;68.00;;;;;;5075694;28;20179;-88
2021/04/25 11:24:09;;;;;;;4.38;2.72;;;25.70;66.10;;;;;;5075247;28;20216;-85
2021/04/25 11:26:40;;;;;;;5.53;3.35;;;26.30;64.20;;;;;;5073905;28;20224;-84
2021/04/25 11:29:15;;;;;;;8.27;3.05;;;24.70;64.40;;;;;;5075004;28;20170;-82
2021/04/25 11:31:47;;;;;;;4.80;3.00;;;24.90;64.80;;;;;;5073843;28;20197;-80
2021/04/25 11:34:25;;;;;;;12.15;3.38;;;24.90;64.80;;;;;;5073550;28;20175;-84
2021/04/25 11:37:09;;;;;;;9.82;3.38;;;26.50;62.90;;;;;;5074441;28;20601;-84
2021/04/25 11:39:44;;;;;;;5.10;3.50;;;27.00;61.60;;;;;;5074766;28;20171;-81
2021/04/25 11:42:12;;;;;;;5.28;2.95;;;23.00;65.00;;;;;;5075024;28;20174;-78
2021/04/25 11:44:41;;;;;;;3.72;3.17;;;22.70;67.10;;;;;;5075178;28;20171;-82
2021/04/25 11:47:13;;;;;;;7.07;3.95;;;20.90;68.40;;;;;;5073881;28;20186;-80
2021/04/25 11:49:43;;;;;;;5.57;3.63;;;20.40;72.40;;;;;;5073705;28;20174;-80
2021/04/25 11:52:16;;;;;;;5.18;3.38;;;21.30;72.00;;;;;;5073552;28;20213;-80
2021/04/25 11:54:44;;;;;;;9.50;3.03;;;23.20;68.20;;;;;;5073470;28;20179;-82
2021/04/25 11:57:20;;;;;;;5.55;3.42;;;23.60;67.80;;;;;;5075360;28;20534;-81
2021/04/25 12:00:08;;;;;;;5.10;3.13;;;24.60;66.10;;;;;;5074840;28;20631;-79
2021/04/25 12:02:37;;;;;;;12.38;3.70;;;21.30;70.00;;;;;;5074623;28;20183;-75
2021/04/25 12:05:12;;;;;;;6.68;3.72;;;20.50;71.90;;;;;;5074504;28;20210;-76
2021/04/25 12:07:48;;;;;;;13.68;3.00;;;20.10;71.60;;;;;;5074986;28;20174;-76
2021/04/25 12:10:24;;;;;;;4.63;3.22;;;21.30;71.80;;;;;;5072910;28;20202;-76
2021/04/25 12:13:08;;;;;;;4.22;3.28;;;21.50;69.10;;;;;;5073366;28;20219;-76
2021/04/25 12:15:53;;;;;;;7.57;3.03;;;21.00;72.40;;;;;;5073628;28;20185;-76
2021/04/25 12:18:27;;;;;;;4.88;3.33;;;20.60;71.20;;;;;;5072709;28;20166;-76
2021/04/25 12:20:57;;;;;;;4.82;2.83;;;20.30;71.30;;;;;;5073174;28;20174;-77
2021/04/25 12:23:25;;;;;;;9.93;3.03;;;21.90;70.90;;;;;;5073330;28;20171;-78
2021/04/25 12:25:52;;;;;;;14.15;3.53;;;20.00;72.70;;;;;;5074480;28;20171;-76
2021/04/25 12:28:20;;;;;;;6.90;3.38;;;17.50;76.40;;;;;;5074530;28;20194;-75
2021/04/25 12:30:54;;;;;;;12.10;3.78;;;16.80;81.00;;;;;;5053359;28;20210;-75
2021/04/25 12:33:19;;;;;;;6.47;3.05;;;16.40;80.80;;;;;;5059998;28;20178;-76
2021/04/25 12:35:50;;;;;;;7.80;3.63;;;16.50;82.00;;;;;;5074092;28;20170;-76
2021/04/25 12:38:31;;;;;;;5.45;3.28;;;16.20;81.80;;;;;;5073146;28;20178;-75
2021/04/25 12:41:02;;;;;;;11.60;3.80;;;15.80;84.20;;;;;;5074395;28;20170;-76
2021/04/25 12:43:32;;;;;;;10.10;4.40;;;16.10;84.30;;;;;;5074261;28;20258;-76
2021/04/25 12:46:00;;;;;;;6.68;3.13;;;15.40;82.10;;;;;;5074348;28;20635;-75
2021/04/25 12:48:30;;;;;;;5.93;3.05;;;14.70;86.60;;;;;;5072808;28;20254;-76
2021/04/25 12:51:26;;;;;;;5.10;3.85;;;14.90;87.30;;;;;;5073865;28;20599;-75